Shannon, AR

7:00 PM CDT on September 23, 2014 (GMT -0500)
Grider | Change Station
CLOSE
Current Station
Airport
Location: Pine Bluff,
Elevation: 207 ft
Nearby Weather Stations

Elev 207 ft 34.17 °N, 91.93 °W | Updated 7 minutes ago

Clear
Clear
72 °F
Feels Like 72 °F
N
5
Wind Variable Wind from NNE

Today
High -- | Low -- °F
--% Chance of Precip.
Yesterday
High -- | Low -- °F
Precip. -- in
6:55 AM 7:02 PM
Waning Crescent, 0% visible
Pressure 30.13 in
Visibility 10.0 miles
Clouds Clear
Dew Point 44 °F
Humidity 37%
Rainfall 0.00 in
Snow Depth Not available.
UV 0 out of 12
Pollen 9.80 out of 12
Air Quality Not available.
Flu Activity Not available.
METAR KPBF 232353Z AUTO 03004KT 10SM CLR 22/07 A3014 RMK AO2 SLP203 T02220067 10267 20222 55004

More Conditions Fewer Conditions

Pressure 30.13 in
Visibility 10.0 miles
Clouds Clear
Dew Point 44 °F
Humidity 37%
Rainfall 0.00 in
Snow Depth Not available.
UV 0 out of 12
Pollen 9.80 out of 12
Air Quality Not available.
Flu Activity Not available.
METAR KPBF 232353Z AUTO 03004KT 10SM CLR 22/07 A3014 RMK AO2 SLP203 T02220067 10267 20222 55004

More Conditions Fewer Conditions

10-Day Weather Forecast

Almanac

Astronomy

Sep. 23, 2014 Rise Set
Actual Time 6:55 AM CDT 7:02 PM CDT
Civil Twilight 6:30 AM CDT 7:27 PM CDT
Nautical Twilight 6:01 AM CDT 7:56 PM CDT
Astronomical Twilight 5:32 AM CDT 8:25 PM CDT
Moon 6:20 AM CDT (9/23) 6:42 PM CDT (9/23)
Length of Visible Light 12h 56m
Length of Day
12h 06m
Tomorrow will be 2m 6s shorter.
Waning Crescent, 0% of the Moon is Illuminated
Today
Waning Crescent
Sep 24
New
Oct 1
First Quarter
Oct 8
Full
Oct 15
Last Quarter

Today's Extremes

State Highs State Lows

Community

WunderPhotos

Upload Photos

1,755,826 photos uploaded!

WunderBlogs® & News

Nearby

Snow Depth

Station Depth Elevation
No new snow has been reported.

Earthquake Activity

City Distance Mag. Time & Date
No recent earthquake activity has been reported nearby.
Minimum magnitude displayed is 2.5.

Coastal Water Temperatures

Place Temperature
No Stations Reporting

Nearby Weather Stations